createdAt,value
2023-05-14T05:30:40.277Z,100666.31
2023-05-14T05:35:43.334Z,100662.53
2023-05-14T05:40:45.602Z,100660.81
2023-05-14T05:45:47.717Z,100668.84
2023-05-14T05:50:50.406Z,100667.28
2023-05-14T05:55:52.604Z,100667.00
2023-05-14T06:00:55.288Z,100654.22
2023-05-14T06:05:57.353Z,100667.91
2023-05-14T06:10:59.462Z,100664.66
2023-05-14T06:16:01.537Z,100674.97
2023-05-14T06:21:03.866Z,100676.12
2023-05-14T06:26:06.088Z,100664.63
2023-05-14T06:31:08.222Z,100669.78
2023-05-14T06:36:10.668Z,100666.00
2023-05-14T06:41:12.752Z,100680.47
2023-05-14T06:46:14.918Z,100684.56
2023-05-14T06:51:17.011Z,100672.88
2023-05-14T06:56:19.193Z,100665.31
2023-05-14T07:01:22.739Z,100662.66
2023-05-14T07:06:24.809Z,100655.41
2023-05-14T07:11:26.860Z,100620.56
2023-05-14T07:16:29.066Z,100627.22
2023-05-14T07:21:31.850Z,100624.63
2023-05-14T07:26:34.123Z,100632.38
2023-05-14T07:31:36.379Z,100614.50
2023-05-14T07:36:38.874Z,100624.63
2023-05-14T07:41:40.980Z,100624.81
2023-05-14T07:46:43.134Z,100612.84
2023-05-14T07:51:45.268Z,100614.53
2023-05-14T07:56:47.370Z,100606.94
2023-05-14T08:01:49.483Z,100610.50
2023-05-14T08:06:51.715Z,100602.59
2023-05-14T08:11:54.316Z,100589.75
2023-05-14T08:16:56.484Z,100578.03
2023-05-14T08:21:58.691Z,100576.37
2023-05-14T08:27:00.916Z,100580.47
2023-05-14T08:32:11.668Z,100570.34
2023-05-14T08:37:21.770Z,100567.06
2023-05-14T08:42:25.786Z,100563.53
2023-05-14T08:47:32.864Z,100569.53
2023-05-14T08:52:35.611Z,100553.66
2023-05-14T08:57:37.811Z,100543.88
2023-05-14T09:02:41.763Z,100523.41
2023-05-14T09:07:43.945Z,100536.53
2023-05-14T09:12:46.408Z,100541.69
2023-05-14T09:17:48.781Z,100532.16
2023-05-14T09:22:54.737Z,100535.69
2023-05-14T09:27:58.657Z,100541.69
2023-05-14T09:33:01.586Z,100516.84
2023-05-14T09:38:03.769Z,100512.50
2023-05-14T09:43:05.893Z,100503.78
2023-05-14T09:48:08.746Z,100521.25
2023-05-14T09:53:11.696Z,100513.62
2023-05-14T09:58:14.715Z,100484.69
2023-05-14T10:03:19.958Z,100487.44
2023-05-14T10:08:35.393Z,100499.69
2023-05-14T10:13:41.902Z,100493.16
2023-05-14T10:18:48.568Z,100460.44
2023-05-14T10:23:51.980Z,100449.25
2023-05-14T10:28:54.323Z,100428.75
2023-05-14T10:33:58.029Z,100399.56
2023-05-14T10:39:04.445Z,100391.84
2023-05-14T10:44:09.953Z,100416.47
2023-05-14T10:49:12.206Z,100415.41
2023-05-14T10:54:16.534Z,100427.69
2023-05-14T10:59:18.575Z,100415.66
2023-05-14T11:04:23.814Z,100402.84
2023-05-14T11:09:26.245Z,100408.56
2023-05-14T11:14:28.659Z,100427.41
2023-05-14T11:19:31.019Z,100418.97
2023-05-14T11:24:33.089Z,100397.66
2023-05-14T11:29:36.995Z,100398.75
2023-05-14T11:34:39.529Z,100382.66
2023-05-14T11:39:49.505Z,100379.94
2023-05-14T11:44:53.849Z,100396.59
2023-05-14T11:49:55.963Z,100396.03
2023-05-14T11:54:58.470Z,100372.56
2023-05-14T12:00:00.557Z,100383.50
2023-05-14T12:05:02.741Z,100386.50
2023-05-14T12:10:05.523Z,100373.69
2023-05-14T12:15:13.461Z,100365.22
2023-05-14T12:20:15.644Z,100347.22
2023-05-14T12:25:17.897Z,100346.16
2023-05-14T12:30:22.065Z,100331.69
2023-05-14T12:35:26.829Z,100338.25
2023-05-14T12:40:29.552Z,100333.03
2023-05-14T12:45:31.786Z,100319.41
2023-05-14T12:50:33.866Z,100327.84
2023-05-14T12:55:35.953Z,100335.50
2023-05-14T13:00:38.153Z,100320.75
2023-05-14T13:05:40.331Z,100302.22
2023-05-14T13:10:42.419Z,100297.59
2023-05-14T13:15:46.757Z,100282.03
2023-05-14T13:20:48.943Z,100282.84
2023-05-14T13:25:51.114Z,100267.31
2023-05-14T13:31:22.621Z,100264.03
2023-05-14T13:36:24.779Z,100255.62
2023-05-14T13:41:26.864Z,100249.63
2023-05-14T13:46:29.076Z,100231.91
2023-05-14T13:51:31.426Z,100240.63
2023-05-14T13:56:33.538Z,100229.72
2023-05-14T14:01:35.760Z,100219.09
2023-05-14T14:06:37.867Z,100212.84
2023-05-14T14:11:41.104Z,100201.12
2023-05-14T14:16:43.463Z,100209.84
2023-05-14T14:21:45.675Z,100205.47
2023-05-14T14:26:47.749Z,100207.13
2023-05-14T14:31:49.937Z,100192.69
2023-05-14T14:36:52.228Z,100198.94
2023-05-14T14:41:54.357Z,100192.13
2023-05-14T14:46:56.416Z,100191.06
2023-05-14T14:51:58.665Z,100178.78
2023-05-14T14:57:00.829Z,100168.16
2023-05-14T15:02:03.358Z,100183.97
2023-05-14T15:07:06.293Z,100161.91
2023-05-14T15:12:09.102Z,100170.62
2023-05-14T15:17:11.594Z,100146.66
2023-05-14T15:22:13.704Z,100148.28
2023-05-14T15:27:15.806Z,100126.22
2023-05-14T15:32:17.931Z,100139.84
2023-05-14T15:37:20.044Z,100132.75
2023-05-14T15:42:22.188Z,100139.00
2023-05-14T15:47:24.257Z,100144.72
2023-05-14T15:52:26.573Z,100140.66
2023-05-14T15:57:28.775Z,100135.47
2023-05-14T16:02:33.338Z,100107.94
2023-05-14T16:07:36.336Z,100097.38
2023-05-14T16:12:38.488Z,100085.13
2023-05-14T16:17:41.063Z,100063.91
2023-05-14T16:22:43.296Z,100069.84
2023-05-14T16:27:45.540Z,100068.50
2023-05-14T16:32:49.496Z,100075.03
2023-05-14T16:37:51.750Z,100074.78
2023-05-14T16:42:53.845Z,100070.41
2023-05-14T16:47:55.986Z,100079.38
2023-05-14T16:52:58.156Z,100051.38
2023-05-14T16:58:00.253Z,100057.66
2023-05-14T17:03:02.501Z,100036.94
2023-05-14T17:08:05.434Z,100032.31
2023-05-14T17:13:07.682Z,100039.41
2023-05-14T17:18:12.064Z,100020.37
2023-05-14T17:23:14.510Z,100024.44
2023-05-14T17:28:16.645Z,100016.28
2023-05-14T17:33:18.764Z,100023.63
2023-05-14T17:38:20.851Z,100009.75
2023-05-14T17:43:23.015Z,100001.31
2023-05-14T17:48:25.167Z,99986.63
2023-05-14T17:53:27.263Z,99991.50
2023-05-14T17:58:29.415Z,99976.00
2023-05-14T18:03:31.612Z,99971.37
2023-05-14T18:08:33.760Z,99957.78
2023-05-14T18:13:35.910Z,99962.69
2023-05-14T18:18:38.104Z,99950.16
2023-05-14T18:23:40.923Z,99946.38
2023-05-14T18:28:43.139Z,99953.16
2023-05-14T18:33:45.309Z,99949.34
2023-05-14T18:38:47.477Z,99955.34
2023-05-14T18:43:50.056Z,99973.56
2023-05-14T18:48:52.183Z,99983.63
2023-05-14T18:53:54.743Z,99976.28
2023-05-14T18:58:56.890Z,99975.72
2023-05-14T19:03:59.007Z,99964.84
2023-05-14T19:09:01.496Z,99977.38
2023-05-14T19:14:03.596Z,99976.81
2023-05-14T19:19:05.756Z,99951.25
2023-05-14T19:24:08.242Z,99956.13
2023-05-14T19:29:10.424Z,99950.13
2023-05-14T19:34:12.633Z,99950.16
2023-05-14T19:39:14.702Z,99954.25
2023-05-14T19:44:16.814Z,99948.50
2023-05-14T19:49:19.007Z,99939.78
2023-05-14T19:54:21.146Z,99933.28
2023-05-14T19:59:23.773Z,99930.28
2023-05-14T20:04:26.123Z,99942.53
2023-05-14T20:09:28.221Z,99943.06
2023-05-14T20:14:30.291Z,99923.19
2023-05-14T20:19:32.504Z,99904.41
2023-05-14T20:24:34.608Z,99906.88
2023-05-14T20:29:36.711Z,99913.94
2023-05-14T20:34:38.780Z,99904.41
2023-05-14T20:39:40.934Z,99909.87
2023-05-14T20:44:43.076Z,99908.50
2023-05-14T20:49:45.104Z,99886.47
2023-05-14T20:54:47.209Z,99884.81
2023-05-14T20:59:49.387Z,99886.75
2023-05-14T21:04:51.733Z,99869.03
2023-05-14T21:09:53.917Z,99864.69
2023-05-14T21:14:56.103Z,99854.63
2023-05-14T21:19:58.177Z,99846.75
2023-05-14T21:25:00.262Z,99849.22
2023-05-14T21:30:02.497Z,99849.50
2023-05-14T21:35:05.401Z,99843.25
2023-05-14T21:40:09.418Z,99821.47
2023-05-14T21:45:11.621Z,99833.94
2023-05-14T21:50:13.877Z,99795.56
2023-05-14T21:55:16.076Z,99777.66
2023-05-14T22:00:23.395Z,99778.72
2023-05-14T22:05:26.106Z,99783.66
2023-05-14T22:10:28.431Z,99773.59
2023-05-14T22:15:30.607Z,99786.91
2023-05-14T22:20:32.688Z,99776.03
2023-05-14T22:25:34.869Z,99801.03
2023-05-14T22:30:36.974Z,99778.47
2023-05-14T22:35:39.181Z,99782.00
2023-05-14T22:40:41.308Z,99783.66
2023-05-14T22:45:43.771Z,99778.75
2023-05-14T22:50:45.912Z,99790.41
2023-05-14T22:55:48.148Z,99772.22
2023-05-14T23:00:50.323Z,99783.62
2023-05-14T23:05:52.466Z,99785.78
2023-05-14T23:10:54.523Z,99785.50
2023-05-14T23:15:56.727Z,99785.22
2023-05-14T23:20:58.928Z,99785.50
2023-05-14T23:26:01.305Z,99774.31
2023-05-14T23:31:03.487Z,99764.28
2023-05-14T23:36:06.245Z,99745.00
2023-05-14T23:41:08.339Z,99735.41
2023-05-14T23:46:10.653Z,99719.37
2023-05-14T23:51:12.805Z,99718.31
2023-05-14T23:56:14.880Z,99710.38
